Terminal Aerodrome Forecast
Issued by NWS

Home | Current Version | Previous Version | Text Only | Print | Product List | Glossary Off
Versions: 1 2 3 4 5 6 7 8 9 10 11 12 13 14

050
FTUS43 KOAX 011723
TAFCDR
TAF
KCDR 011723Z 0118/0218 03012KT P6SM BKN050
     FM020200 27004KT P6SM SCT150=

USA.gov is the U.S. government's official web portal to all federal, state and local government web resources and services.